Terminal Aerodrome Forecast
Issued by NWS

Home | Current Version | Previous Version | Text Only | Print | Product List | Glossary On
Versions: 1 2 3 4 5 6 7 8 9 10 11 12 13 14 15 16 17 18 19 20 21 22 23 24 25 26 27 28 29 30 31 32 33 34
379
FTUS43 KPAH 252333
TAFOWB
TAF
KOWB 252333Z 2600/2624 17010G17KT P6SM -SHRA SCT080 OVC180
     FM260300 16009KT P6SM -SHRA SCT045 BKN100
     FM260700 18007KT P6SM SCT060
     FM261600 20012KT P6SM BKN035
     FM261900 23014G23KT P6SM BKN040=

USA.gov is the U.S. government's official web portal to all federal, state and local government web resources and services.